createdAt,value
2019-02-12T00:00:27.028Z,5.10
2019-02-12T00:02:33.384Z,5.50
2019-02-12T00:04:39.648Z,5.58
2019-02-12T00:06:47.485Z,6.28
2019-02-12T00:08:53.763Z,5.08
2019-02-12T00:11:00.183Z,4.65
2019-02-12T00:13:06.372Z,5.78
2019-02-12T00:15:13.791Z,5.17
2019-02-12T00:17:20.021Z,4.97
2019-02-12T00:19:26.248Z,4.80
2019-02-12T00:21:32.597Z,5.40
2019-02-12T00:23:39.063Z,4.92
2019-02-12T00:25:45.645Z,4.62
2019-02-12T00:27:51.940Z,4.72
2019-02-12T00:29:59.235Z,4.97
2019-02-12T00:32:05.585Z,4.33
2019-02-12T00:34:11.822Z,5.20
2019-02-12T00:36:18.359Z,4.30
2019-02-12T00:38:24.807Z,4.20
2019-02-12T00:40:31.205Z,4.78
2019-02-12T00:42:37.504Z,4.45
2019-02-12T00:44:43.910Z,4.67
2019-02-12T00:46:50.123Z,3.83
2019-02-12T00:48:56.426Z,3.90
2019-02-12T00:51:02.784Z,3.90
2019-02-12T00:53:09.176Z,4.00
2019-02-12T00:55:15.531Z,4.40
2019-02-12T00:57:21.810Z,3.80
2019-02-12T00:59:28.017Z,3.83
2019-02-12T01:01:34.441Z,4.08
2019-02-12T01:03:40.657Z,3.80
2019-02-12T01:05:47.130Z,3.72
2019-02-12T01:07:53.439Z,3.72
2019-02-12T01:09:59.764Z,4.03
2019-02-12T01:12:06.126Z,4.67
2019-02-12T01:14:12.368Z,4.78
2019-02-12T01:16:18.729Z,4.72
2019-02-12T01:18:24.934Z,4.87
2019-02-12T01:20:31.254Z,5.22
2019-02-12T01:22:37.531Z,4.70
2019-02-12T01:24:43.819Z,5.58
2019-02-12T01:26:50.190Z,4.80
2019-02-12T01:28:56.404Z,4.92
2019-02-12T01:31:02.684Z,4.97
2019-02-12T01:33:08.927Z,5.37
2019-02-12T01:35:15.191Z,6.08
2019-02-12T01:37:21.478Z,5.92
2019-02-12T01:39:27.683Z,6.25
2019-02-12T01:41:33.998Z,5.10
2019-02-12T01:43:40.297Z,5.65
2019-02-12T01:45:46.544Z,5.97
2019-02-12T01:47:52.753Z,6.25
2019-02-12T01:49:58.964Z,5.45
2019-02-12T01:52:05.416Z,4.72
2019-02-12T01:54:11.549Z,4.45
2019-02-12T01:56:17.968Z,4.03
2019-02-12T01:58:24.298Z,3.70
2019-02-12T02:00:30.576Z,4.17
2019-02-12T02:02:36.883Z,2.90
2019-02-12T02:04:43.060Z,2.67
2019-02-12T02:06:50.408Z,3.05
2019-02-12T02:08:56.803Z,2.87
2019-02-12T02:11:03.182Z,2.52
2019-02-12T02:13:09.433Z,3.02
2019-02-12T02:15:16.906Z,2.77
2019-02-12T02:17:23.136Z,2.45
2019-02-12T02:19:30.522Z,2.35
2019-02-12T02:21:43.872Z,2.30
2019-02-12T02:23:44.813Z,2.83
2019-02-12T02:25:51.110Z,2.30
2019-02-12T02:27:57.249Z,2.25
2019-02-12T02:30:03.791Z,2.17
2019-02-12T02:32:10.120Z,1.82
2019-02-12T02:34:16.388Z,1.70
2019-02-12T02:36:22.766Z,1.80
2019-02-12T02:38:29.038Z,1.70
2019-02-12T02:40:35.317Z,1.35
2019-02-12T02:42:41.679Z,1.60
2019-02-12T02:44:48.054Z,1.27
2019-02-12T02:46:54.249Z,1.60
2019-02-12T02:49:00.891Z,1.35
2019-02-12T02:51:07.897Z,1.35
2019-02-12T02:53:17.033Z,1.25
2019-02-12T02:55:23.277Z,1.30
2019-02-12T02:57:29.485Z,1.65
2019-02-12T02:59:35.767Z,1.42
2019-02-12T03:01:42.006Z,1.77
2019-02-12T03:03:48.388Z,1.65
2019-02-12T03:05:54.731Z,1.47
2019-02-12T03:08:01.046Z,1.60
2019-02-12T03:10:09.896Z,1.67
2019-02-12T03:12:16.192Z,1.77
2019-02-12T03:14:22.419Z,1.90
2019-02-12T03:16:28.782Z,2.00
2019-02-12T03:18:35.204Z,2.10
2019-02-12T03:20:41.515Z,2.17
2019-02-12T03:22:47.723Z,2.37
2019-02-12T03:24:53.951Z,1.80
2019-02-12T03:27:00.384Z,1.50
2019-02-12T03:29:06.595Z,1.87
2019-02-12T03:31:12.879Z,2.00
2019-02-12T03:33:19.198Z,2.05
2019-02-12T03:35:25.479Z,1.77
2019-02-12T03:37:31.908Z,1.90
2019-02-12T03:39:38.169Z,2.12
2019-02-12T03:41:44.588Z,1.90
2019-02-12T03:43:50.822Z,2.20
2019-02-12T03:45:57.109Z,1.75
2019-02-12T03:48:03.324Z,1.80
2019-02-12T03:50:11.851Z,1.70
2019-02-12T03:52:18.087Z,1.85
2019-02-12T03:54:24.440Z,1.75
2019-02-12T03:56:30.771Z,2.05
2019-02-12T03:58:37.015Z,1.77
2019-02-12T04:00:43.147Z,1.80
2019-02-12T04:03:07.703Z,1.90
2019-02-12T04:05:14.161Z,1.95
2019-02-12T04:07:20.316Z,1.57
2019-02-12T04:09:26.602Z,1.82
2019-02-12T04:11:32.905Z,1.80
2019-02-12T04:13:39.053Z,1.87
2019-02-12T04:15:45.494Z,2.00
2019-02-12T04:17:51.794Z,1.77
2019-02-12T04:19:58.168Z,1.90
2019-02-12T04:22:04.581Z,2.27
2019-02-12T04:24:10.957Z,1.87
2019-02-12T04:26:17.254Z,1.52
2019-02-12T04:28:24.326Z,1.55
2019-02-12T04:30:31.641Z,2.12
2019-02-12T04:32:38.006Z,1.72
2019-02-12T04:34:44.494Z,1.75
2019-02-12T04:36:50.971Z,1.85
2019-02-12T04:38:57.276Z,2.10
2019-02-12T04:41:03.551Z,1.72
2019-02-12T04:43:09.868Z,1.85
2019-02-12T04:45:16.154Z,1.85
2019-02-12T04:47:22.545Z,1.60
2019-02-12T04:49:28.967Z,1.50
2019-02-12T04:51:35.176Z,1.70
2019-02-12T04:53:41.340Z,1.20
2019-02-12T04:55:47.507Z,1.52
2019-02-12T04:57:53.720Z,1.45
2019-02-12T04:59:59.855Z,1.45
2019-02-12T05:02:06.098Z,1.10
2019-02-12T05:04:12.238Z,1.15
2019-02-12T05:06:18.380Z,1.20
2019-02-12T05:08:24.780Z,1.12
2019-02-12T05:10:44.438Z,1.05
2019-02-12T05:12:50.655Z,1.30
2019-02-12T05:14:56.823Z,1.02
2019-02-12T05:17:02.983Z,2.00
2019-02-12T05:19:09.201Z,1.00
2019-02-12T05:21:15.377Z,1.10
2019-02-12T05:23:21.531Z,0.95
2019-02-12T05:25:27.733Z,1.10
2019-02-12T05:27:33.989Z,1.30
2019-02-12T05:29:40.224Z,1.50
2019-02-12T05:31:46.362Z,1.10
2019-02-12T05:33:52.688Z,1.17
2019-02-12T05:35:58.868Z,1.30
2019-02-12T05:38:05.158Z,1.10
2019-02-12T05:40:12.232Z,1.40
2019-02-12T05:42:18.524Z,1.17
2019-02-12T05:44:24.834Z,1.10
2019-02-12T05:46:31.242Z,1.25
2019-02-12T05:48:37.465Z,1.12
2019-02-12T05:50:43.816Z,1.65
2019-02-12T05:52:54.500Z,1.32
2019-02-12T05:54:57.819Z,1.30
2019-02-12T05:57:03.987Z,1.52
2019-02-12T05:59:10.232Z,1.70
2019-02-12T06:01:18.359Z,1.72
2019-02-12T06:03:24.515Z,1.70
2019-02-12T06:05:31.149Z,2.20
2019-02-12T06:07:37.300Z,1.90
2019-02-12T06:09:43.445Z,3.25
2019-02-12T06:11:49.870Z,2.37
2019-02-12T06:13:56.279Z,2.58
2019-02-12T06:16:02.487Z,2.55
2019-02-12T06:18:08.673Z,2.20
2019-02-12T06:20:14.755Z,2.12
2019-02-12T06:22:20.970Z,2.77
2019-02-12T06:24:27.264Z,3.15
2019-02-12T06:26:33.400Z,2.12
2019-02-12T06:28:39.609Z,2.30
2019-02-12T06:30:45.931Z,2.90
2019-02-12T06:32:52.079Z,3.02
2019-02-12T06:34:58.285Z,2.70
2019-02-12T06:37:04.622Z,3.00
2019-02-12T06:39:10.831Z,2.50
2019-02-12T06:41:17.091Z,2.75
2019-02-12T06:43:23.468Z,2.45
2019-02-12T06:45:29.610Z,2.90
2019-02-12T06:47:35.677Z,2.92
2019-02-12T06:49:41.853Z,2.80
2019-02-12T06:51:48.065Z,3.35
2019-02-12T06:53:54.362Z,3.15
2019-02-12T06:56:00.621Z,3.02
2019-02-12T06:58:06.832Z,2.77
2019-02-12T07:00:16.829Z,2.80
2019-02-12T07:03:09.458Z,3.02
2019-02-12T07:05:15.849Z,2.25
2019-02-12T07:07:26.886Z,3.20
2019-02-12T07:09:37.966Z,2.90
2019-02-12T07:11:57.771Z,3.17
2019-02-12T07:14:26.643Z,3.40
2019-02-12T07:17:06.171Z,3.80
2019-02-12T07:19:41.330Z,3.22
2019-02-12T07:21:54.939Z,2.85
2019-02-12T07:24:12.002Z,3.27
2019-02-12T07:26:54.456Z,2.75
2019-02-12T07:29:21.596Z,2.50
2019-02-12T07:32:04.899Z,3.35
2019-02-12T07:34:18.938Z,2.33
2019-02-12T07:37:09.349Z,2.60
2019-02-12T07:39:56.157Z,2.70
2019-02-12T07:42:39.916Z,2.75
2019-02-12T07:45:38.972Z,3.15
2019-02-12T07:47:58.753Z,3.02
2019-02-12T07:50:27.814Z,2.50
2019-02-12T07:53:02.737Z,2.40
2019-02-12T07:55:28.374Z,2.30
2019-02-12T07:58:10.991Z,2.55
2019-02-12T08:00:42.849Z,2.12
2019-02-12T08:03:22.764Z,1.90
2019-02-12T08:05:45.548Z,2.00
2019-02-12T08:08:33.065Z,1.90
2019-02-12T08:11:01.847Z,1.90
2019-02-12T08:13:18.554Z,2.15
2019-02-12T08:15:38.496Z,1.85
2019-02-12T08:18:16.399Z,1.92
2019-02-12T08:20:39.270Z,1.90
2019-02-12T08:23:15.773Z,2.20
2019-02-12T08:25:26.815Z,2.75
2019-02-12T08:27:47.390Z,2.45
2019-02-12T08:30:29.156Z,1.85
2019-02-12T08:32:58.231Z,2.08
2019-02-12T08:35:39.278Z,2.08
2019-02-12T08:38:10.993Z,2.15
2019-02-12T08:40:53.986Z,2.22
2019-02-12T08:43:33.456Z,2.65
2019-02-12T08:46:20.563Z,2.12
2019-02-12T08:48:31.678Z,7.45
2019-02-12T08:51:06.349Z,2.33
2019-02-12T08:53:50.271Z,2.22
2019-02-12T08:56:19.281Z,2.30
2019-02-12T08:58:54.450Z,2.08
2019-02-12T09:01:10.955Z,2.00
2019-02-12T09:03:39.848Z,2.10
2019-02-12T09:06:19.270Z,1.82
2019-02-12T09:09:04.929Z,1.82
2019-02-12T09:11:28.072Z,1.67
2019-02-12T09:13:59.839Z,1.72
2019-02-12T09:16:28.851Z,2.27
2019-02-12T09:20:56.714Z,1.82
2019-02-12T09:23:31.885Z,1.60
2019-02-12T09:25:45.431Z,2.33
2019-02-12T09:28:14.092Z,2.15
2019-02-12T09:30:46.323Z,1.85
2019-02-12T09:33:12.752Z,1.90
2019-02-12T09:35:35.423Z,2.00
2019-02-12T09:38:01.054Z,1.72
2019-02-12T09:40:45.112Z,2.60
2019-02-12T09:43:17.526Z,3.58
2019-02-12T09:45:37.225Z,3.02
2019-02-12T09:47:57.045Z,1.70
2019-02-12T09:50:34.984Z,1.90
2019-02-12T09:53:25.072Z,2.57
2019-02-12T09:56:07.594Z,2.30
2019-02-12T09:58:36.128Z,1.30
2019-02-12T10:00:53.424Z,1.90
2019-02-12T10:03:37.813Z,2.20
2019-02-12T10:06:00.511Z,3.60
2019-02-12T10:08:17.367Z,3.62
2019-02-12T10:10:31.025Z,2.87
2019-02-12T10:12:59.991Z,2.55
2019-02-12T10:18:10.900Z,3.02
2019-02-12T10:20:33.115Z,3.60
2019-02-12T10:23:17.239Z,2.98
2019-02-12T10:25:25.290Z,2.70
2019-02-12T10:27:58.617Z,2.10
2019-02-12T10:30:21.691Z,2.30
2019-02-12T10:32:27.720Z,2.47
2019-02-12T10:34:33.928Z,4.45
2019-02-12T10:36:40.177Z,3.17
2019-02-12T10:38:46.384Z,2.10
2019-02-12T10:40:52.599Z,3.20
2019-02-12T10:42:58.807Z,1.82
2019-02-12T10:45:07.461Z,2.00
2019-02-12T10:47:13.670Z,2.20
2019-02-12T10:49:19.944Z,2.52
2019-02-12T10:51:27.213Z,3.65
2019-02-12T10:53:33.426Z,4.80
2019-02-12T10:55:39.888Z,2.65
2019-02-12T10:57:46.082Z,1.70
2019-02-12T10:59:52.331Z,2.45
2019-02-12T11:01:58.510Z,2.02
2019-02-12T11:04:05.732Z,2.17
2019-02-12T11:06:11.942Z,1.75
2019-02-12T11:08:18.165Z,1.80
2019-02-12T11:10:24.307Z,1.72
2019-02-12T11:12:30.523Z,1.47
2019-02-12T11:14:36.771Z,1.70
2019-02-12T11:16:42.920Z,1.47
2019-02-12T11:18:49.108Z,3.65
2019-02-12T11:20:55.355Z,5.25
2019-02-12T11:23:01.675Z,2.37
2019-02-12T11:25:09.506Z,2.12
2019-02-12T11:27:15.661Z,2.30
2019-02-12T11:29:21.807Z,2.17
2019-02-12T11:31:28.166Z,2.47
2019-02-12T11:33:34.399Z,2.20
2019-02-12T11:35:40.693Z,2.85
2019-02-12T11:37:46.989Z,2.30
2019-02-12T11:39:53.162Z,4.35
2019-02-12T11:41:59.446Z,2.80
2019-02-12T11:44:05.594Z,3.83
2019-02-12T11:46:11.840Z,2.40
2019-02-12T11:48:18.229Z,2.30
2019-02-12T11:50:24.439Z,2.58
2019-02-12T11:52:30.690Z,2.25
2019-02-12T11:54:43.620Z,2.40
2019-02-12T11:56:44.760Z,2.22
2019-02-12T11:58:51.023Z,2.27
2019-02-12T12:00:58.918Z,2.50
2019-02-12T12:03:05.182Z,2.02
2019-02-12T12:05:11.550Z,2.20
2019-02-12T12:07:17.703Z,2.45
2019-02-12T12:09:23.972Z,2.20
2019-02-12T12:11:30.164Z,1.72
2019-02-12T12:13:36.374Z,1.90
2019-02-12T12:15:42.550Z,1.92
2019-02-12T12:17:48.804Z,2.47
2019-02-12T12:19:55.019Z,2.60
2019-02-12T12:22:01.246Z,2.55
2019-02-12T12:24:07.477Z,2.25
2019-02-12T12:26:13.687Z,1.90
2019-02-12T12:28:19.903Z,2.60
2019-02-12T12:30:26.232Z,7.83
2019-02-12T12:32:32.517Z,2.60
2019-02-12T12:34:38.681Z,2.47
2019-02-12T12:36:44.862Z,2.08
2019-02-12T12:38:51.102Z,1.85
2019-02-12T12:40:57.317Z,2.02
2019-02-12T12:43:03.624Z,2.45
2019-02-12T12:45:15.531Z,2.25
2019-02-12T12:47:21.679Z,2.20
2019-02-12T12:49:28.144Z,2.20
2019-02-12T12:51:34.889Z,4.30
2019-02-12T12:53:42.965Z,2.33
2019-02-12T12:55:49.276Z,2.25
2019-02-12T12:57:57.221Z,2.20
2019-02-12T13:00:03.800Z,2.30
2019-02-12T13:02:11.519Z,2.47
2019-02-12T13:04:17.815Z,2.20
2019-02-12T13:06:24.039Z,2.52
2019-02-12T13:08:30.230Z,2.25
2019-02-12T13:10:36.524Z,2.50
2019-02-12T13:12:42.803Z,2.30
2019-02-12T13:14:49.136Z,2.33
2019-02-12T13:16:55.360Z,2.60
2019-02-12T13:19:01.685Z,2.40
2019-02-12T13:21:08.030Z,2.67
2019-02-12T13:23:14.159Z,3.35
2019-02-12T13:25:20.478Z,2.15
2019-02-12T13:27:27.155Z,2.70
2019-02-12T13:29:34.943Z,2.87
2019-02-12T13:31:41.116Z,2.60
2019-02-12T13:33:47.391Z,3.12
2019-02-12T13:35:53.560Z,3.60
2019-02-12T13:38:00.373Z,3.22
2019-02-12T13:40:10.785Z,2.92
2019-02-12T13:42:17.023Z,3.20
2019-02-12T13:44:23.236Z,3.10
2019-02-12T13:46:30.536Z,2.95
2019-02-12T13:48:37.716Z,2.65
2019-02-12T13:50:43.997Z,2.77
2019-02-12T13:52:50.359Z,2.87
2019-02-12T13:54:56.526Z,3.80
2019-02-12T13:57:02.732Z,2.90
2019-02-12T13:59:08.976Z,3.00
2019-02-12T14:01:15.203Z,2.60
2019-02-12T14:03:22.733Z,2.70
2019-02-12T14:05:29.206Z,3.20
2019-02-12T14:07:35.442Z,3.02
2019-02-12T14:09:41.741Z,3.12
2019-02-12T14:11:47.922Z,3.40
2019-02-12T14:13:54.220Z,3.75
2019-02-12T14:16:00.539Z,4.62
2019-02-12T14:18:06.713Z,3.15
2019-02-12T14:20:17.056Z,2.60
2019-02-12T14:22:23.252Z,2.80
2019-02-12T14:24:29.623Z,3.10
2019-02-12T14:26:36.632Z,3.22
2019-02-12T14:28:42.870Z,4.03
2019-02-12T14:30:49.179Z,3.87
2019-02-12T14:32:55.404Z,3.55
2019-02-12T14:35:01.637Z,3.22
2019-02-12T14:37:08.129Z,4.03
2019-02-12T14:39:14.515Z,3.30
2019-02-12T14:41:20.748Z,3.65
2019-02-12T14:43:27.076Z,2.90
2019-02-12T14:45:33.364Z,3.70
2019-02-12T14:47:39.742Z,2.75
2019-02-12T14:49:46.952Z,2.95
2019-02-12T14:51:53.178Z,2.70
2019-02-12T14:53:59.574Z,3.00
2019-02-12T14:56:11.105Z,2.37
2019-02-12T14:58:13.808Z,2.20
2019-02-12T15:00:20.991Z,1.62
2019-02-12T15:02:27.237Z,1.30
2019-02-12T15:04:34.367Z,1.50
2019-02-12T15:06:40.629Z,1.77
2019-02-12T15:08:46.935Z,1.45
2019-02-12T15:10:53.220Z,1.60
2019-02-12T15:12:59.441Z,1.95
2019-02-12T15:15:08.333Z,2.33
2019-02-12T15:17:14.482Z,1.77
2019-02-12T15:19:20.769Z,1.72
2019-02-12T15:21:27.024Z,2.10
2019-02-12T15:23:33.331Z,2.15
2019-02-12T15:25:42.070Z,1.80
2019-02-12T15:27:47.789Z,1.60
2019-02-12T15:29:53.962Z,1.95
2019-02-12T15:32:00.199Z,1.90
2019-02-12T15:34:06.390Z,1.67
2019-02-12T15:36:12.609Z,1.95
2019-02-12T15:38:18.848Z,1.87
2019-02-12T15:40:25.151Z,1.82
2019-02-12T15:42:31.615Z,1.87
2019-02-12T15:44:38.036Z,2.02
2019-02-12T15:46:44.298Z,1.90
2019-02-12T15:48:50.516Z,2.50
2019-02-12T15:50:56.739Z,1.98
2019-02-12T15:53:02.941Z,1.98
2019-02-12T15:55:12.560Z,2.05
2019-02-12T15:57:18.782Z,2.00
2019-02-12T15:59:26.269Z,1.87
2019-02-12T16:01:32.559Z,2.12
2019-02-12T16:03:39.767Z,2.15
2019-02-12T16:05:46.061Z,2.08
2019-02-12T16:07:52.304Z,2.33
2019-02-12T16:09:59.663Z,2.65
2019-02-12T16:12:06.186Z,2.50
2019-02-12T16:14:12.506Z,2.12
2019-02-12T16:16:18.857Z,1.70
2019-02-12T16:18:25.094Z,1.90
2019-02-12T16:20:32.982Z,2.30
2019-02-12T16:22:41.611Z,1.52
2019-02-12T16:24:48.758Z,2.08
2019-02-12T16:26:55.167Z,2.00
2019-02-12T16:29:02.986Z,2.70
2019-02-12T16:31:09.191Z,2.85
2019-02-12T16:33:15.552Z,2.40
2019-02-12T16:35:21.848Z,3.00
2019-02-12T16:37:28.168Z,3.35
2019-02-12T16:39:34.456Z,3.42
2019-02-12T16:41:40.700Z,2.20
2019-02-12T16:43:47.094Z,2.62
2019-02-12T16:46:00.923Z,2.45
2019-02-12T16:48:07.169Z,3.00
2019-02-12T16:50:13.416Z,2.85
2019-02-12T16:52:21.114Z,2.60
2019-02-12T16:54:27.732Z,2.70
2019-02-12T16:56:34.117Z,2.72
2019-02-12T16:58:40.266Z,2.90
2019-02-12T17:00:46.629Z,3.22
2019-02-12T17:02:52.956Z,2.62
2019-02-12T17:04:59.124Z,3.50
2019-02-12T17:07:06.870Z,3.02
2019-02-12T17:09:13.211Z,3.20
2019-02-12T17:11:19.505Z,3.10
2019-02-12T17:13:25.717Z,2.70
2019-02-12T17:15:31.965Z,3.00
2019-02-12T17:17:38.248Z,3.00
2019-02-12T17:19:44.486Z,3.50
2019-02-12T17:21:50.700Z,3.27
2019-02-12T17:23:56.852Z,3.10
2019-02-12T17:26:03.000Z,4.05
2019-02-12T17:28:09.564Z,3.25
2019-02-12T17:30:17.799Z,3.75
2019-02-12T17:32:25.089Z,3.40
2019-02-12T17:34:31.414Z,3.67
2019-02-12T17:36:37.565Z,3.33
2019-02-12T17:38:43.729Z,3.20
2019-02-12T17:40:50.073Z,2.67
2019-02-12T17:42:57.103Z,3.00
2019-02-12T17:45:03.627Z,3.45
2019-02-12T17:47:10.237Z,3.83
2019-02-12T17:49:16.523Z,4.20
2019-02-12T17:51:22.741Z,4.70
2019-02-12T17:53:28.922Z,4.37
2019-02-12T17:55:35.269Z,3.92
2019-02-12T17:57:41.429Z,4.20
2019-02-12T17:59:47.611Z,4.00
2019-02-12T18:01:53.975Z,3.30
2019-02-12T18:04:00.139Z,3.55
2019-02-12T18:06:06.481Z,2.58
2019-02-12T18:08:12.709Z,3.05
2019-02-12T18:10:21.868Z,3.33
2019-02-12T18:12:28.208Z,3.40
2019-02-12T18:14:34.430Z,3.55
2019-02-12T18:16:43.210Z,4.20
2019-02-12T18:18:50.826Z,3.40
2019-02-12T18:20:57.063Z,3.65
2019-02-12T18:23:03.373Z,3.95
2019-02-12T18:25:12.929Z,3.77
2019-02-12T18:27:20.832Z,4.03
2019-02-12T18:29:27.180Z,4.12
2019-02-12T18:31:33.662Z,4.40
2019-02-12T18:33:39.906Z,4.45
2019-02-12T18:35:46.278Z,4.87
2019-02-12T18:37:52.598Z,4.40
2019-02-12T18:39:58.897Z,4.53
2019-02-12T18:42:06.817Z,4.37
2019-02-12T18:44:13.057Z,3.77
2019-02-12T18:46:19.422Z,4.12
2019-02-12T18:48:25.797Z,4.22
2019-02-12T18:50:32.056Z,4.12
2019-02-12T18:52:39.418Z,4.47
2019-02-12T18:54:47.206Z,4.55
2019-02-12T18:56:55.132Z,4.67
2019-02-12T18:59:01.684Z,5.08
2019-02-12T19:01:09.624Z,4.17
2019-02-12T19:03:17.585Z,4.40
2019-02-12T19:05:23.977Z,5.08
2019-02-12T19:07:30.321Z,4.60
2019-02-12T19:09:38.490Z,3.98
2019-02-12T19:11:54.215Z,4.55
2019-02-12T19:13:55.954Z,4.22
2019-02-12T19:16:05.458Z,4.55
2019-02-12T19:18:17.298Z,4.58
2019-02-12T19:20:26.689Z,5.03
2019-02-12T19:22:33.110Z,5.10
2019-02-12T19:24:39.486Z,5.45
2019-02-12T19:26:50.123Z,4.85
2019-02-12T19:28:57.244Z,5.87
2019-02-12T19:31:03.572Z,4.47
2019-02-12T19:33:09.918Z,5.67
2019-02-12T19:35:17.894Z,5.17
2019-02-12T19:37:25.890Z,4.97
2019-02-12T19:39:32.180Z,5.05
2019-02-12T19:41:38.578Z,4.83
2019-02-12T19:43:46.498Z,5.08
2019-02-12T19:45:53.652Z,4.65
2019-02-12T19:48:00.052Z,6.37
2019-02-12T19:50:09.404Z,4.95
2019-02-12T19:52:15.782Z,4.28
2019-02-12T19:54:22.203Z,4.55
2019-02-12T19:56:30.147Z,4.12
2019-02-12T19:58:41.823Z,5.33
2019-02-12T20:00:48.151Z,4.55
2019-02-12T20:02:54.457Z,5.00
2019-02-12T20:05:03.848Z,4.03
2019-02-12T20:07:13.143Z,4.80
2019-02-12T20:09:21.308Z,4.08
2019-02-12T20:11:29.173Z,4.17
2019-02-12T20:13:37.114Z,4.12
2019-02-12T20:15:43.536Z,4.20
2019-02-12T20:17:49.829Z,3.50
2019-02-12T20:19:57.388Z,4.28
2019-02-12T20:22:03.832Z,4.47
2019-02-12T20:24:10.285Z,4.28
2019-02-12T20:26:17.460Z,4.37
2019-02-12T20:28:23.694Z,4.22
2019-02-12T20:30:29.939Z,4.47
2019-02-12T20:32:36.387Z,3.62
2019-02-12T20:34:42.623Z,3.90
2019-02-12T20:36:50.253Z,4.25
2019-02-12T20:38:56.561Z,4.45
2019-02-12T20:41:02.977Z,4.42
2019-02-12T20:43:09.192Z,5.03
2019-02-12T20:45:18.264Z,5.30
2019-02-12T20:47:28.024Z,5.65
2019-02-12T20:49:35.942Z,5.45
2019-02-12T20:51:42.315Z,5.80
2019-02-12T20:53:48.597Z,5.90
2019-02-12T20:55:54.754Z,5.33
2019-02-12T20:58:01.021Z,5.90
2019-02-12T21:00:14.953Z,5.53
2019-02-12T21:02:21.194Z,5.65
2019-02-12T21:04:27.449Z,6.35
2019-02-12T21:06:35.115Z,5.97
2019-02-12T21:08:42.775Z,7.17
2019-02-12T21:10:49.241Z,7.28
2019-02-12T21:12:55.663Z,7.85
2019-02-12T21:15:03.076Z,8.33
2019-02-12T21:17:09.658Z,8.63
2019-02-12T21:19:16.028Z,8.63
2019-02-12T21:21:22.394Z,7.67
2019-02-12T21:23:28.802Z,7.80
2019-02-12T21:25:35.027Z,8.50
2019-02-12T21:27:43.513Z,7.85
2019-02-12T21:29:49.851Z,7.67
2019-02-12T21:31:58.759Z,7.65
2019-02-12T21:34:04.987Z,7.58
2019-02-12T21:36:11.346Z,7.87
2019-02-12T21:38:20.264Z,7.55
2019-02-12T21:40:28.212Z,6.53
2019-02-12T21:42:34.596Z,7.80
2019-02-12T21:44:40.967Z,7.47
2019-02-12T21:46:48.813Z,7.08
2019-02-12T21:48:55.291Z,7.70
2019-02-12T21:51:01.543Z,7.65
2019-02-12T21:53:07.947Z,7.28
2019-02-12T21:55:18.002Z,7.60
2019-02-12T21:57:31.549Z,7.90
2019-02-12T21:59:32.091Z,8.73
2019-02-12T22:01:38.702Z,7.60
2019-02-12T22:03:44.921Z,8.05
2019-02-12T22:05:51.143Z,7.92
2019-02-12T22:07:57.474Z,8.18
2019-02-12T22:10:06.042Z,8.35
2019-02-12T22:12:12.443Z,6.67
2019-02-12T22:14:18.714Z,7.12
2019-02-12T22:16:25.168Z,8.53
2019-02-12T22:18:31.399Z,7.00
2019-02-12T22:20:37.733Z,8.80
2019-02-12T22:22:43.971Z,7.85
2019-02-12T22:24:50.243Z,9.00
2019-02-12T22:26:56.523Z,8.30
2019-02-12T22:29:02.678Z,7.50
2019-02-12T22:31:08.979Z,9.23
2019-02-12T22:33:15.239Z,8.33
2019-02-12T22:35:21.535Z,7.92
2019-02-12T22:37:27.819Z,8.08
2019-02-12T22:39:34.015Z,8.30
2019-02-12T22:41:40.343Z,9.25
2019-02-12T22:43:46.515Z,8.83
2019-02-12T22:45:52.723Z,9.60
2019-02-12T22:47:59.058Z,8.45
2019-02-12T22:50:09.148Z,8.95
2019-02-12T22:52:15.394Z,10.48
2019-02-12T22:54:21.629Z,10.45
2019-02-12T22:56:27.930Z,10.85
2019-02-12T22:58:34.121Z,10.63
2019-02-12T23:00:47.626Z,12.20
2019-02-12T23:02:54.599Z,10.30
2019-02-12T23:05:00.859Z,11.48
2019-02-12T23:07:08.504Z,10.30
2019-02-12T23:09:16.395Z,10.10
2019-02-12T23:11:22.706Z,9.73
2019-02-12T23:13:28.941Z,10.45
2019-02-12T23:15:35.310Z,9.50
2019-02-12T23:17:41.704Z,10.32
2019-02-12T23:19:47.867Z,9.05
2019-02-12T23:21:54.215Z,10.60
2019-02-12T23:24:00.425Z,9.65
2019-02-12T23:26:06.636Z,9.70
2019-02-12T23:28:13.036Z,9.55
2019-02-12T23:30:19.367Z,9.60
2019-02-12T23:32:25.672Z,9.70
2019-02-12T23:34:31.832Z,9.28
2019-02-12T23:36:38.112Z,9.98
2019-02-12T23:38:44.431Z,8.58
2019-02-12T23:40:50.768Z,8.95
2019-02-12T23:42:56.965Z,9.60
2019-02-12T23:45:03.196Z,9.30
2019-02-12T23:47:09.525Z,9.83
2019-02-12T23:49:15.868Z,8.38
2019-02-12T23:51:22.936Z,8.85
2019-02-12T23:53:29.096Z,7.85
2019-02-12T23:55:35.361Z,8.25
2019-02-12T23:57:42.599Z,8.00
2019-02-12T23:59:48.757Z,8.33
